View Sortable Currents For Network
ASOSAWOSCoCoRaHSCOOPDCPISUSM
SchoolNetOtherSCANMy FavoritesBy StateRWIS
RWIS SurfaceRWIS TrafficRWIS SoilBy NWS WFOUSCRN

Current SCAN Conditions

Sorted by: (Station ID)     Click on a column to sort it.
ADD: Station: Ob Time Temps °F   Wind [knots]  
Air (Hi / Lo) DewP Feels RH% Speed Direction Gust @Time Solar Rad
Rodgers FarmMar-25-19 10:00 AM 43(46/40) 40 0 89 000
Crescent Lake No1Mar-25-19 10:00 AM 33(33/21) 11 0 41 000
MasonMar-25-19 10:00 AM 44(44/37) 36 0 75 000
AmesMar-25-19 10:00 AM 37(42/32) 36 0 98 000
Mt VernonMar-25-19 10:00 AM 49(49/45) 48 0 99 000
Powell GardensMar-25-19 10:00 AM 47(51/47) 44 0 89 000
SHAGBARK HILLSMar-25-19 10:00 AM 40(40/33) 30 0 67 000
Eros Data CenterMar-25-19 10:00 AM 35(35/30) 27 0 73 000
Schell-Osage11:00 AM 50(53/49) 47 0 89 000
Journagan Ranch11:00 AM 52(52/44) 47 0 84 000
CMRB LTAR11:00 AM 45(49/41) 37 0 74 000
Platteville11:00 AM 36(36/29) 26 0 67 000
Elsberry PMC11:00 AM 44(51/42) 36 0 73 000
Carver Farm11:00 AM 45(54/45) 43 0 92 000
Mark Twain HS11:00 AM 44(48/39) 37 0 77 000
Twin Pines Conservation11:00 AM 52(52/46) 48 0 86 000


SCAN Soil Conditions

  2 inch 4 inch 8 inch 20 inch 40 inch
Station: Ob Time: Moist:Temp: Moist:Temp: Moist:Temp: Moist:Temp: Moist:Temp:
Rodgers FarmMar-25-19 10:00 AM 420 470 560 510 520
Crescent Lake No1Mar-25-19 10:00 AM 160 190 200 100 70
MasonMar-25-19 10:00 AM 170 110 160 180 280
AmesMar-25-19 10:00 AM 250 430 500 500 590
Mt VernonMar-25-19 10:00 AM 290 180 250 390 00
Powell GardensMar-25-19 10:00 AM 360 500 510 450 410
SHAGBARK HILLSMar-25-19 10:00 AM 450 210 240 280 370
Eros Data CenterMar-25-19 10:00 AM 360 420 230 210 400
Schell-Osage11:00 AM -1000 400 450 610 430
Journagan Ranch11:00 AM 250 10 330 430 480
CMRB LTAR11:00 AM 450 390 380 640 480
Platteville11:00 AM 470 460 230 290 490
Elsberry PMC11:00 AM 440 410 400 440 480
Carver Farm11:00 AM 240 330 320 310 580
Mark Twain HS11:00 AM 370 390 390 590 540
Twin Pines Conservation11:00 AM 220 230 270 170 260